createdAt,value
2022-10-07T00:02:03.655Z,13.30
2022-10-07T00:04:30.780Z,13.30
2022-10-07T00:06:57.784Z,13.40
2022-10-07T00:09:24.779Z,13.40
2022-10-07T00:11:51.830Z,13.40
2022-10-07T00:14:18.784Z,13.30
2022-10-07T00:16:45.932Z,13.40
2022-10-07T00:19:13.559Z,13.40
2022-10-07T00:21:40.582Z,13.50
2022-10-07T00:24:08.189Z,13.50
2022-10-07T00:26:35.914Z,13.50
2022-10-07T00:29:04.074Z,13.50
2022-10-07T00:31:32.720Z,13.60
2022-10-07T00:34:02.117Z,13.60
2022-10-07T00:36:30.608Z,13.60
2022-10-07T00:39:01.826Z,13.70
2022-10-07T00:41:31.139Z,13.60
2022-10-07T00:43:58.672Z,13.50
2022-10-07T00:46:29.553Z,13.40
2022-10-07T00:49:01.556Z,13.50
2022-10-07T00:51:29.481Z,13.50
2022-10-07T00:53:56.462Z,13.50
2022-10-07T00:56:25.477Z,13.50
2022-10-07T00:58:52.844Z,13.50
2022-10-07T01:01:20.578Z,13.50
2022-10-07T01:03:48.702Z,13.40
2022-10-07T01:06:15.911Z,13.40
2022-10-07T01:08:43.716Z,13.40
2022-10-07T01:11:19.940Z,13.40
2022-10-07T01:13:50.024Z,13.40
2022-10-07T01:16:30.510Z,13.40
2022-10-07T01:19:01.362Z,13.50
2022-10-07T01:21:37.257Z,13.40
2022-10-07T01:24:15.240Z,13.40
2022-10-07T01:26:53.078Z,13.40
2022-10-07T01:29:29.000Z,13.30
2022-10-07T01:32:15.036Z,13.30
2022-10-07T01:34:42.778Z,13.20
2022-10-07T01:37:11.941Z,13.30
2022-10-07T01:39:42.575Z,13.30
2022-10-07T01:42:09.627Z,13.30
2022-10-07T01:44:36.597Z,13.30
2022-10-07T01:47:03.648Z,13.30
2022-10-07T01:49:30.923Z,13.30
2022-10-07T01:52:24.345Z,13.30
2022-10-07T01:55:10.262Z,13.30
2022-10-07T01:57:58.441Z,13.20
2022-10-07T02:00:26.293Z,13.20
2022-10-07T02:03:05.415Z,13.20
2022-10-07T02:05:51.947Z,13.20
2022-10-07T02:08:28.349Z,13.20
2022-10-07T02:11:16.910Z,13.00
2022-10-07T02:13:47.844Z,12.80
2022-10-07T02:16:24.067Z,12.50
2022-10-07T02:18:51.872Z,12.30
2022-10-07T02:21:22.437Z,12.20
2022-10-07T02:23:49.806Z,12.20
2022-10-07T02:26:19.665Z,12.20
2022-10-07T02:28:48.013Z,12.20
2022-10-07T02:31:18.321Z,12.20
2022-10-07T02:33:47.307Z,12.10
2022-10-07T02:36:17.063Z,12.10
2022-10-07T02:38:45.119Z,12.00
2022-10-07T02:41:15.047Z,11.90
2022-10-07T02:43:56.405Z,11.90
2022-10-07T02:46:23.529Z,11.80
2022-10-07T02:49:02.217Z,11.80
2022-10-07T02:51:35.474Z,11.70
2022-10-07T02:54:03.396Z,11.60
2022-10-07T02:56:32.839Z,11.50
2022-10-07T02:59:02.012Z,11.40
2022-10-07T03:01:35.008Z,11.30
2022-10-07T03:04:02.112Z,11.20
2022-10-07T03:06:29.784Z,11.10
2022-10-07T03:09:00.332Z,11.00
2022-10-07T03:11:27.409Z,11.00
2022-10-07T03:13:54.368Z,10.90
2022-10-07T03:16:21.722Z,10.90
2022-10-07T03:18:49.748Z,10.80
2022-10-07T03:21:33.116Z,10.80
2022-10-07T03:24:07.422Z,10.80
2022-10-07T03:26:40.745Z,10.90
2022-10-07T03:29:08.660Z,10.90
2022-10-07T03:31:36.638Z,10.90
2022-10-07T03:34:03.696Z,10.90
2022-10-07T03:36:32.057Z,11.00
2022-10-07T03:38:59.682Z,11.00
2022-10-07T03:41:27.442Z,11.10
2022-10-07T03:43:59.386Z,11.10
2022-10-07T03:46:27.958Z,11.20
2022-10-07T03:48:55.142Z,11.30
2022-10-07T03:51:22.595Z,11.30
2022-10-07T03:53:49.958Z,11.30
2022-10-07T03:56:17.174Z,11.30
2022-10-07T03:58:44.325Z,11.50
2022-10-07T04:01:15.243Z,11.50
2022-10-07T04:03:56.153Z,11.40
2022-10-07T04:06:24.460Z,11.30
2022-10-07T04:08:52.446Z,11.30
2022-10-07T04:11:19.810Z,11.10
2022-10-07T04:13:48.182Z,11.00
2022-10-07T04:16:17.749Z,11.00
2022-10-07T04:18:45.059Z,10.90
2022-10-07T04:21:12.430Z,10.80
2022-10-07T04:23:40.612Z,10.70
2022-10-07T04:26:09.405Z,10.70
2022-10-07T04:28:37.065Z,10.60
2022-10-07T04:31:11.542Z,10.60
2022-10-07T04:33:47.415Z,10.70
2022-10-07T04:36:25.062Z,10.70
2022-10-07T04:39:02.143Z,10.60
2022-10-07T04:41:34.138Z,10.60
2022-10-07T04:44:01.875Z,10.50
2022-10-07T04:46:33.899Z,10.50
2022-10-07T04:49:06.396Z,10.50
2022-10-07T04:51:33.489Z,10.50
2022-10-07T04:54:01.433Z,10.40
2022-10-07T04:56:51.155Z,10.40
2022-10-07T04:59:23.646Z,10.30
2022-10-07T05:01:53.110Z,10.40
2022-10-07T05:04:21.227Z,10.30
2022-10-07T05:06:49.574Z,10.30
2022-10-07T05:09:16.650Z,10.20
2022-10-07T05:11:46.533Z,10.20
2022-10-07T05:14:21.399Z,10.20
2022-10-07T05:16:50.253Z,10.20
2022-10-07T05:19:17.903Z,10.10
2022-10-07T05:21:45.926Z,10.10
2022-10-07T05:24:13.788Z,10.00
2022-10-07T05:26:41.040Z,10.00
2022-10-07T05:29:09.724Z,10.00
2022-10-07T05:31:45.908Z,10.00
2022-10-07T05:34:16.245Z,9.90
2022-10-07T05:36:43.629Z,10.00
2022-10-07T05:39:10.668Z,9.90
2022-10-07T05:42:04.286Z,9.80
2022-10-07T05:44:37.908Z,9.70
2022-10-07T05:47:06.220Z,9.60
2022-10-07T05:49:33.175Z,9.60
2022-10-07T05:52:00.184Z,9.60
2022-10-07T05:54:28.368Z,9.60
2022-10-07T05:56:57.954Z,9.50
2022-10-07T05:59:25.478Z,9.50
2022-10-07T06:01:56.529Z,9.40
2022-10-07T06:04:24.118Z,9.30
2022-10-07T06:06:53.110Z,9.30
2022-10-07T06:09:38.857Z,9.20
2022-10-07T06:12:31.596Z,9.20
2022-10-07T06:15:01.303Z,9.10
2022-10-07T06:17:29.543Z,9.10
2022-10-07T06:19:59.515Z,9.10
2022-10-07T06:22:27.267Z,9.10
2022-10-07T06:24:58.906Z,9.10
2022-10-07T06:27:26.520Z,9.20
2022-10-07T06:29:54.306Z,9.20
2022-10-07T06:32:21.574Z,9.20
2022-10-07T06:34:49.172Z,9.20
2022-10-07T06:37:16.617Z,9.20
2022-10-07T06:39:44.977Z,9.10
2022-10-07T06:42:12.631Z,9.10
2022-10-07T06:45:06.213Z,9.10
2022-10-07T06:47:35.374Z,9.10
2022-10-07T06:50:03.885Z,9.10
2022-10-07T06:52:31.902Z,9.00
2022-10-07T06:54:59.270Z,9.00
2022-10-07T06:57:46.011Z,9.00
2022-10-07T07:00:16.327Z,8.90
2022-10-07T07:02:45.115Z,8.90
2022-10-07T07:05:15.700Z,8.80
2022-10-07T07:07:45.027Z,8.80
2022-10-07T07:10:12.599Z,8.80
2022-10-07T07:12:43.153Z,8.70
2022-10-07T07:15:11.060Z,8.70
2022-10-07T07:17:39.605Z,8.70
2022-10-07T07:20:07.098Z,8.60
2022-10-07T07:22:34.747Z,8.60
2022-10-07T07:25:01.950Z,8.60
2022-10-07T07:27:28.904Z,8.70
2022-10-07T07:29:56.149Z,8.70
2022-10-07T07:32:23.273Z,8.70
2022-10-07T07:34:50.443Z,8.80
2022-10-07T07:37:21.380Z,8.80
2022-10-07T07:39:51.925Z,8.90
2022-10-07T07:42:19.290Z,9.00
2022-10-07T07:44:47.844Z,9.20
2022-10-07T07:47:17.258Z,9.30
2022-10-07T07:49:46.155Z,9.30
2022-10-07T07:52:19.421Z,9.70
2022-10-07T07:54:48.722Z,9.20
2022-10-07T07:57:15.842Z,9.20
2022-10-07T07:59:44.124Z,9.30
2022-10-07T08:02:14.302Z,9.40
2022-10-07T08:04:44.886Z,9.50
2022-10-07T08:07:13.168Z,9.60
2022-10-07T08:09:42.516Z,9.60
2022-10-07T08:12:09.672Z,9.70
2022-10-07T08:14:37.930Z,9.90
2022-10-07T08:17:06.219Z,10.00
2022-10-07T08:19:34.258Z,10.00
2022-10-07T08:22:01.542Z,10.10
2022-10-07T08:24:31.165Z,10.30
2022-10-07T08:26:58.897Z,10.50
2022-10-07T08:29:26.191Z,10.70
2022-10-07T08:31:53.197Z,10.80
2022-10-07T08:34:20.127Z,10.90
2022-10-07T08:36:48.823Z,11.00
2022-10-07T08:39:15.962Z,11.10
2022-10-07T08:41:58.284Z,11.20
2022-10-07T08:44:32.160Z,11.40
2022-10-07T08:47:31.696Z,11.40
2022-10-07T08:50:19.983Z,11.20
2022-10-07T08:52:52.170Z,11.10
2022-10-07T08:55:31.461Z,11.10
2022-10-07T08:58:17.387Z,11.00
2022-10-07T09:01:08.249Z,11.00
2022-10-07T09:03:42.495Z,11.00
2022-10-07T09:06:13.996Z,11.00
2022-10-07T09:08:43.738Z,11.00
2022-10-07T09:11:16.766Z,11.00
2022-10-07T09:13:56.129Z,11.10
2022-10-07T09:16:24.934Z,11.10
2022-10-07T09:18:54.173Z,11.10
2022-10-07T09:21:25.675Z,11.20
2022-10-07T09:23:56.291Z,11.30
2022-10-07T09:26:25.804Z,11.40
2022-10-07T09:28:52.668Z,11.40
2022-10-07T09:31:21.290Z,11.70
2022-10-07T09:33:53.157Z,12.00
2022-10-07T09:36:20.323Z,12.10
2022-10-07T09:38:52.537Z,12.20
2022-10-07T09:41:40.017Z,12.20
2022-10-07T09:44:16.080Z,12.10
2022-10-07T09:46:51.249Z,12.20
2022-10-07T09:49:27.492Z,12.30
2022-10-07T09:52:14.622Z,12.60
2022-10-07T09:54:42.219Z,12.70
2022-10-07T09:57:22.567Z,12.80
2022-10-07T09:59:49.582Z,12.90
2022-10-07T10:02:17.217Z,13.00
2022-10-07T10:04:54.558Z,13.00
2022-10-07T10:07:28.991Z,13.00
2022-10-07T10:10:25.427Z,13.00
2022-10-07T10:12:53.700Z,12.90
2022-10-07T10:15:25.536Z,12.70
2022-10-07T10:17:52.975Z,12.70
2022-10-07T10:20:28.049Z,12.70
2022-10-07T10:22:55.542Z,12.60
2022-10-07T10:25:44.329Z,11.10
2022-10-07T10:28:23.413Z,12.60
2022-10-07T10:30:53.596Z,12.70
2022-10-07T10:33:26.690Z,13.10
2022-10-07T10:35:53.685Z,13.40
2022-10-07T10:38:27.818Z,13.50
2022-10-07T10:41:03.069Z,13.50
2022-10-07T10:43:34.424Z,13.40
2022-10-07T10:46:01.415Z,13.30
2022-10-07T10:48:37.477Z,13.20
2022-10-07T10:51:31.662Z,13.20
2022-10-07T10:54:19.340Z,13.10
2022-10-07T10:57:00.997Z,13.10
2022-10-07T10:59:37.677Z,12.30
2022-10-07T11:02:33.226Z,13.10
2022-10-07T11:05:12.863Z,12.50
2022-10-07T11:07:43.759Z,13.50
2022-10-07T11:10:24.574Z,13.70
2022-10-07T11:12:58.998Z,13.80
2022-10-07T11:15:32.797Z,13.90
2022-10-07T11:18:02.275Z,14.00
2022-10-07T11:20:33.789Z,14.20
2022-10-07T11:23:03.417Z,14.30
2022-10-07T11:25:36.775Z,14.30
2022-10-07T11:28:16.422Z,14.50
2022-10-07T11:30:47.970Z,14.60
2022-10-07T11:33:24.603Z,14.70
2022-10-07T11:35:53.953Z,14.90
2022-10-07T11:38:22.618Z,14.90
2022-10-07T11:40:56.039Z,14.00
2022-10-07T11:43:26.101Z,14.90
2022-10-07T11:45:56.417Z,15.10
2022-10-07T11:48:26.860Z,15.20
2022-10-07T11:50:58.241Z,15.10
2022-10-07T11:53:27.723Z,14.40
2022-10-07T11:55:58.163Z,14.80
2022-10-07T11:58:25.155Z,14.80
2022-10-07T12:01:11.990Z,14.80
2022-10-07T12:03:39.069Z,14.90
2022-10-07T12:06:11.793Z,15.00
2022-10-07T12:08:41.741Z,15.00
2022-10-07T12:11:12.553Z,15.00
2022-10-07T12:13:46.869Z,15.00
2022-10-07T12:16:33.554Z,15.00
2022-10-07T12:19:06.601Z,15.00
2022-10-07T12:22:09.657Z,15.00
2022-10-07T12:24:37.636Z,14.90
2022-10-07T12:27:13.637Z,14.80
2022-10-07T12:29:48.692Z,14.70
2022-10-07T12:32:35.077Z,14.50
2022-10-07T12:35:22.060Z,14.40
2022-10-07T12:37:51.755Z,14.50
2022-10-07T12:40:22.796Z,14.50
2022-10-07T12:42:52.278Z,14.40
2022-10-07T12:45:20.072Z,14.30
2022-10-07T12:47:47.987Z,14.20
2022-10-07T12:50:17.730Z,14.00
2022-10-07T12:52:55.992Z,13.90
2022-10-07T12:55:37.240Z,13.80
2022-10-07T12:58:28.819Z,13.80
2022-10-07T13:01:06.418Z,13.90
2022-10-07T13:03:51.782Z,14.10
2022-10-07T13:06:34.279Z,14.10
2022-10-07T13:09:07.372Z,14.20
2022-10-07T13:11:47.981Z,14.20
2022-10-07T13:14:38.718Z,14.20
2022-10-07T13:17:25.170Z,14.50
2022-10-07T13:20:01.554Z,14.30
2022-10-07T13:22:28.900Z,14.40
2022-10-07T13:24:57.112Z,14.50
2022-10-07T13:27:34.847Z,14.60
2022-10-07T13:30:02.991Z,14.60
2022-10-07T13:32:30.981Z,14.60
2022-10-07T13:34:58.783Z,14.60
2022-10-07T13:37:26.849Z,14.50
2022-10-07T13:39:56.884Z,14.40
2022-10-07T13:42:27.508Z,14.30
2022-10-07T13:44:59.924Z,14.20
2022-10-07T13:47:29.351Z,14.10
2022-10-07T13:49:56.421Z,14.00
2022-10-07T13:52:31.654Z,13.90
2022-10-07T13:54:58.800Z,13.80
2022-10-07T13:57:27.133Z,13.80
2022-10-07T13:59:54.145Z,13.70
2022-10-07T14:02:21.314Z,13.60
2022-10-07T14:04:54.509Z,13.50
2022-10-07T14:07:21.902Z,13.40
2022-10-07T14:09:49.797Z,13.40
2022-10-07T14:12:16.962Z,13.40
2022-10-07T14:14:46.171Z,13.50
2022-10-07T14:17:16.214Z,13.50
2022-10-07T14:19:43.542Z,13.50
2022-10-07T14:22:19.340Z,13.60
2022-10-07T14:24:53.890Z,13.30
2022-10-07T14:27:56.580Z,13.70
2022-10-07T14:30:29.835Z,13.60
2022-10-07T14:33:27.875Z,13.60
2022-10-07T14:36:13.390Z,13.60
2022-10-07T14:38:41.356Z,13.50
2022-10-07T14:41:09.620Z,13.40
2022-10-07T14:43:37.460Z,13.40
2022-10-07T14:46:09.410Z,13.40
2022-10-07T14:48:36.732Z,13.40
2022-10-07T14:51:03.873Z,13.30
2022-10-07T14:53:30.920Z,13.30
2022-10-07T14:55:57.933Z,13.20
2022-10-07T14:58:25.390Z,13.10
2022-10-07T15:00:52.400Z,13.10
2022-10-07T15:03:19.450Z,13.10
2022-10-07T15:05:47.369Z,13.10
2022-10-07T15:08:14.742Z,13.10
2022-10-07T15:10:41.725Z,13.20
2022-10-07T15:13:13.288Z,13.20
2022-10-07T15:15:45.069Z,13.20
2022-10-07T15:18:12.177Z,13.20
2022-10-07T15:20:39.784Z,13.20
2022-10-07T15:23:07.828Z,13.20
2022-10-07T15:25:35.509Z,13.20
2022-10-07T15:28:02.574Z,13.20
2022-10-07T15:30:30.044Z,13.20
2022-10-07T15:32:57.742Z,13.20
2022-10-07T15:35:25.024Z,13.20
2022-10-07T15:37:53.249Z,13.10
2022-10-07T15:40:20.577Z,13.10
2022-10-07T15:42:48.124Z,13.10
2022-10-07T15:45:15.374Z,13.00
2022-10-07T15:47:42.484Z,13.00
2022-10-07T15:50:09.927Z,13.00
2022-10-07T15:52:37.007Z,13.10
2022-10-07T15:55:07.820Z,13.10
2022-10-07T15:57:35.360Z,13.20
2022-10-07T16:00:02.633Z,13.10
2022-10-07T16:02:39.115Z,13.10
2022-10-07T16:05:06.313Z,13.00
2022-10-07T16:07:33.661Z,12.80
2022-10-07T16:10:00.767Z,12.70
2022-10-07T16:12:27.967Z,12.60
2022-10-07T16:14:54.901Z,12.60
2022-10-07T16:17:22.180Z,12.50
2022-10-07T16:19:49.141Z,12.40
2022-10-07T16:22:16.656Z,12.30
2022-10-07T16:24:43.792Z,12.30
2022-10-07T16:27:10.691Z,12.20
2022-10-07T16:29:55.985Z,12.10
2022-10-07T16:32:23.477Z,12.00
2022-10-07T16:34:50.920Z,11.90
2022-10-07T16:37:17.931Z,12.10
2022-10-07T16:41:33.390Z,12.40
2022-10-07T16:44:01.725Z,11.60
2022-10-07T16:46:29.566Z,11.50
2022-10-07T16:48:56.752Z,11.50
2022-10-07T16:51:26.489Z,11.30
2022-10-07T16:53:56.153Z,11.30
2022-10-07T16:56:23.895Z,11.20
2022-10-07T16:58:59.027Z,11.20
2022-10-07T17:01:27.607Z,11.10
2022-10-07T17:03:56.102Z,11.00
2022-10-07T17:06:24.424Z,10.90
2022-10-07T17:08:51.802Z,10.90
2022-10-07T17:11:30.534Z,10.90
2022-10-07T17:14:05.597Z,10.80
2022-10-07T17:16:37.607Z,10.70
2022-10-07T17:19:06.538Z,10.70
2022-10-07T17:21:38.139Z,10.60
2022-10-07T17:24:05.479Z,10.50
2022-10-07T17:26:32.754Z,10.50
2022-10-07T17:29:07.775Z,10.40
2022-10-07T17:31:39.221Z,10.40
2022-10-07T17:34:09.008Z,10.30
2022-10-07T17:36:36.353Z,10.20
2022-10-07T17:39:04.402Z,10.20
2022-10-07T17:41:33.929Z,10.10
2022-10-07T17:44:03.110Z,10.00
2022-10-07T17:46:33.268Z,9.90
2022-10-07T17:49:02.326Z,9.80
2022-10-07T17:51:31.336Z,9.70
2022-10-07T17:54:00.287Z,9.70
2022-10-07T17:56:28.920Z,9.60
2022-10-07T17:58:57.255Z,9.60
2022-10-07T18:01:31.090Z,9.60
2022-10-07T18:04:01.136Z,9.60
2022-10-07T18:06:33.824Z,9.50
2022-10-07T18:09:03.332Z,9.40
2022-10-07T18:11:49.407Z,9.40
2022-10-07T18:14:35.146Z,9.40
2022-10-07T18:17:02.994Z,9.30
2022-10-07T18:19:30.076Z,9.30
2022-10-07T18:21:57.695Z,9.30
2022-10-07T18:24:27.966Z,9.30
2022-10-07T18:27:00.273Z,9.20
2022-10-07T18:29:38.463Z,9.20
2022-10-07T18:32:07.006Z,9.20
2022-10-07T18:34:34.445Z,9.20
2022-10-07T18:37:01.854Z,9.20
2022-10-07T18:39:29.851Z,9.20
2022-10-07T18:41:59.362Z,9.20
2022-10-07T18:44:26.840Z,9.10
2022-10-07T18:46:54.046Z,9.10
2022-10-07T18:49:21.127Z,9.00
2022-10-07T18:51:50.693Z,8.90
2022-10-07T18:54:18.934Z,8.90
2022-10-07T18:56:50.895Z,8.80
2022-10-07T18:59:19.443Z,8.80
2022-10-07T19:01:50.412Z,8.80
2022-10-07T19:04:19.021Z,8.70
2022-10-07T19:06:46.804Z,8.70
2022-10-07T19:09:20.500Z,8.70
2022-10-07T19:11:48.296Z,8.80
2022-10-07T19:14:16.224Z,8.70
2022-10-07T19:16:51.417Z,8.60
2022-10-07T19:19:20.936Z,8.60
2022-10-07T19:21:51.605Z,8.50
2022-10-07T19:24:20.848Z,8.50
2022-10-07T19:26:50.112Z,8.40
2022-10-07T19:29:18.178Z,8.50
2022-10-07T19:31:48.746Z,8.40
2022-10-07T19:34:19.618Z,8.40
2022-10-07T19:36:47.989Z,8.30
2022-10-07T19:39:18.086Z,8.30
2022-10-07T19:41:45.650Z,8.20
2022-10-07T19:44:13.620Z,8.20
2022-10-07T19:46:41.542Z,8.10
2022-10-07T19:49:09.544Z,8.20
2022-10-07T19:51:38.951Z,8.10
2022-10-07T19:54:10.216Z,8.10
2022-10-07T19:56:38.718Z,8.00
2022-10-07T19:59:08.240Z,8.00
2022-10-07T20:01:38.007Z,8.00
2022-10-07T20:04:18.699Z,8.00
2022-10-07T20:06:46.325Z,7.90
2022-10-07T20:09:15.871Z,7.80
2022-10-07T20:11:43.250Z,7.70
2022-10-07T20:14:10.543Z,7.70
2022-10-07T20:16:39.278Z,7.70
2022-10-07T20:19:11.107Z,7.70
2022-10-07T20:21:39.453Z,7.70
2022-10-07T20:24:07.788Z,7.70
2022-10-07T20:26:37.786Z,7.70
2022-10-07T20:29:07.225Z,7.70
2022-10-07T20:31:38.673Z,7.80
2022-10-07T20:34:07.226Z,7.80
2022-10-07T20:36:37.278Z,7.80
2022-10-07T20:39:27.472Z,7.80
2022-10-07T20:42:13.198Z,7.70
2022-10-07T20:44:40.503Z,7.80
2022-10-07T20:47:09.290Z,7.80
2022-10-07T20:49:38.830Z,7.70
2022-10-07T20:52:17.658Z,7.70
2022-10-07T20:54:45.959Z,7.70
2022-10-07T20:57:18.282Z,7.70
2022-10-07T20:59:45.623Z,7.70
2022-10-07T21:02:14.790Z,7.70
2022-10-07T21:04:42.072Z,7.70
2022-10-07T21:07:09.788Z,7.60
2022-10-07T21:09:36.944Z,7.60
2022-10-07T21:12:07.519Z,7.50
2022-10-07T21:14:35.924Z,7.50
2022-10-07T21:17:07.210Z,7.50
2022-10-07T21:19:36.168Z,7.50
2022-10-07T21:22:04.727Z,7.40
2022-10-07T21:24:34.439Z,7.40
2022-10-07T21:27:03.682Z,7.40
2022-10-07T21:29:31.462Z,7.40
2022-10-07T21:32:00.083Z,7.40
2022-10-07T21:34:28.876Z,7.40
2022-10-07T21:36:57.322Z,7.40
2022-10-07T21:39:24.871Z,7.50
2022-10-07T21:41:52.287Z,7.50
2022-10-07T21:44:19.397Z,7.50
2022-10-07T21:46:46.794Z,7.50
2022-10-07T21:49:14.894Z,7.60
2022-10-07T21:51:42.669Z,7.60
2022-10-07T21:54:14.442Z,7.50
2022-10-07T21:56:46.072Z,7.60
2022-10-07T21:59:14.192Z,7.60
2022-10-07T22:01:42.480Z,7.60
2022-10-07T22:04:16.411Z,7.60
2022-10-07T22:07:02.386Z,7.60
2022-10-07T22:09:29.691Z,7.60
2022-10-07T22:11:57.679Z,7.60
2022-10-07T22:14:24.960Z,7.60
2022-10-07T22:16:52.046Z,7.60
2022-10-07T22:19:19.293Z,7.60
2022-10-07T22:21:46.397Z,7.70
2022-10-07T22:24:14.220Z,7.70
2022-10-07T22:26:46.971Z,7.70
2022-10-07T22:29:16.400Z,7.70
2022-10-07T22:31:44.518Z,7.70
2022-10-07T22:34:31.882Z,7.70
2022-10-07T22:36:59.144Z,7.60
2022-10-07T22:39:28.813Z,7.60
2022-10-07T22:41:56.527Z,7.60
2022-10-07T22:44:23.581Z,7.60
2022-10-07T22:46:51.248Z,7.60
2022-10-07T22:49:18.476Z,7.60
2022-10-07T22:51:45.992Z,7.50
2022-10-07T22:54:14.260Z,7.50
2022-10-07T22:56:41.439Z,7.50
2022-10-07T22:59:08.817Z,7.50
2022-10-07T23:01:36.746Z,7.40
2022-10-07T23:04:04.708Z,7.40
2022-10-07T23:06:34.635Z,7.40
2022-10-07T23:09:02.968Z,7.40
2022-10-07T23:11:30.164Z,7.50
2022-10-07T23:13:57.547Z,7.60
2022-10-07T23:16:29.913Z,7.60
2022-10-07T23:18:58.946Z,7.60
2022-10-07T23:21:27.892Z,7.50
2022-10-07T23:24:06.987Z,7.50
2022-10-07T23:26:35.398Z,7.50
2022-10-07T23:29:02.922Z,7.40
2022-10-07T23:31:31.961Z,7.40
2022-10-07T23:34:00.502Z,7.40
2022-10-07T23:36:28.279Z,7.40
2022-10-07T23:38:55.621Z,7.40
2022-10-07T23:41:25.545Z,7.40
2022-10-07T23:43:54.814Z,7.30
2022-10-07T23:46:23.546Z,7.30
2022-10-07T23:48:51.041Z,7.20
2022-10-07T23:51:21.005Z,7.20
2022-10-07T23:53:48.904Z,7.10
2022-10-07T23:56:18.395Z,7.10
2022-10-07T23:58:46.109Z,7.10
